Terminal Aerodrome Forecast
Issued by NWS

Home | Current Version | Previous Version | Graphics & Text | Print | Product List | Glossary On
Versions: 1 2 3 4 5 6 7 8 9 10 11 12 13 14 15 16 17
000
FTUS43 KICT 242336
TAFCNU
TAF
KCNU 242336Z 2500/2524 VRB05KT P6SM SCT020
      TEMPO 2500/2501 OVC020
     FM250100 VRB05KT P6SM SKC
      TEMPO 2503/2507 5SM BR
     FM250700 18007KT P6SM SKC
     FM251600 18018G25KT P6SM SCT250=

USA.gov is the U.S. government's official web portal to all federal, state and local government web resources and services.